Time,TemperatureF,DewpointF,PressureIn,WindDirection,WindDirectionDegrees,WindSpeedMPH,WindSpeedGustMPH,Humidity,HourlyPrecipIn,Conditions,Clouds,dailyrainin,SoftwareType,DateUTC
2013-09-19 00:02:00,67.8,66.0,29.99,SE,139,0.0,4.0,95,0.00,,,0.00,weatherlink.com 1.10,2013-09-19 04:02:00,
2013-09-19 00:17:00,67.9,67.0,29.98,SE,146,0.0,2.0,95,0.00,,,0.00,weatherlink.com 1.10,2013-09-19 04:17:00,
2013-09-19 00:32:00,67.8,66.0,29.98,SE,129,2.0,3.0,95,0.00,,,0.00,weatherlink.com 1.10,2013-09-19 04:32:00,
2013-09-19 00:47:00,67.4,66.0,29.99,SSE,150,0.0,1.0,95,0.00,,,0.00,weatherlink.com 1.10,2013-09-19 04:47:00,
2013-09-19 01:02:00,66.8,65.0,29.98,SE,139,0.0,0.0,95,0.00,,,0.00,weatherlink.com 1.10,2013-09-19 05:02:00,
2013-09-19 01:17:00,66.8,66.0,29.98,ESE,120,0.0,0.0,96,0.00,,,0.00,weatherlink.com 1.10,2013-09-19 05:17:00,
2013-09-19 01:32:00,66.8,66.0,29.98,East,96,0.0,0.0,96,0.00,,,0.00,weatherlink.com 1.10,2013-09-19 05:32:00,
2013-09-19 01:47:00,66.5,65.0,29.98,ESE,117,0.0,0.0,96,0.00,,,0.00,weatherlink.com 1.10,2013-09-19 05:47:00,
2013-09-19 02:02:00,66.3,65.0,29.98,ESE,117,0.0,0.0,96,0.00,,,0.00,weatherlink.com 1.10,2013-09-19 06:02:00,
2013-09-19 02:17:00,66.5,65.0,29.98,ESE,105,0.0,0.0,96,0.00,,,0.00,weatherlink.com 1.10,2013-09-19 06:17:00,
2013-09-19 02:32:00,66.7,66.0,29.98,SE,142,0.0,2.0,96,0.00,,,0.00,weatherlink.com 1.10,2013-09-19 06:32:00,
2013-09-19 02:47:00,67.3,67.0,29.98,SE,125,1.0,3.0,97,0.00,,,0.00,weatherlink.com 1.10,2013-09-19 06:47:00,
2013-09-19 03:02:00,67.3,67.0,29.98,ESE,105,0.0,1.0,97,0.01,,,0.01,weatherlink.com 1.10,2013-09-19 07:02:00,
2013-09-19 03:17:00,67.5,67.0,29.98,SE,131,0.0,4.0,97,0.01,,,0.01,weatherlink.com 1.10,2013-09-19 07:17:00,
2013-09-19 03:32:00,67.5,67.0,29.98,SE,131,0.0,0.0,97,0.01,,,0.01,weatherlink.com 1.10,2013-09-19 07:32:00,
2013-09-19 03:47:00,67.4,67.0,29.97,South,174,0.0,0.0,97,0.01,,,0.01,weatherlink.com 1.10,2013-09-19 07:47:00,
2013-09-19 04:02:00,67.3,67.0,29.97,ESE,107,0.0,2.0,97,0.00,,,0.01,weatherlink.com 1.10,2013-09-19 08:02:00,
2013-09-19 04:17:00,67.3,67.0,29.97,ESE,122,0.0,2.0,97,0.00,,,0.01,weatherlink.com 1.10,2013-09-19 08:17:00,
2013-09-19 04:32:00,67.3,67.0,29.97,ESE,120,1.0,1.0,97,0.00,,,0.01,weatherlink.com 1.10,2013-09-19 08:32:00,
2013-09-19 04:47:00,67.3,67.0,29.97,SE,142,0.0,0.0,97,0.00,,,0.01,weatherlink.com 1.10,2013-09-19 08:47:00,
2013-09-19 05:02:00,67.3,67.0,29.96,East,98,0.0,0.0,97,0.00,,,0.01,weatherlink.com 1.10,2013-09-19 09:02:00,
2013-09-19 05:17:00,67.5,67.0,29.97,ESE,114,1.0,2.0,97,0.00,,,0.01,weatherlink.com 1.10,2013-09-19 09:17:00,
2013-09-19 05:32:00,67.6,67.0,29.97,East,83,0.0,0.0,97,0.00,,,0.01,weatherlink.com 1.10,2013-09-19 09:32:00,
2013-09-19 05:47:00,67.7,67.0,29.97,SSE,158,0.0,0.0,97,0.00,,,0.01,weatherlink.com 1.10,2013-09-19 09:47:00,
2013-09-19 06:02:00,67.7,67.0,29.97,SE,142,0.0,0.0,97,0.00,,,0.01,weatherlink.com 1.10,2013-09-19 10:02:00,
2013-09-19 06:17:00,67.9,67.0,29.97,ESE,120,0.0,0.0,97,0.00,,,0.01,weatherlink.com 1.10,2013-09-19 10:17:00,
2013-09-19 06:32:00,68.2,67.0,29.97,East,96,1.0,4.0,97,0.00,,,0.01,weatherlink.com 1.10,2013-09-19 10:32:00,
2013-09-19 06:47:00,68.4,68.0,29.97,NE,41,0.0,2.0,97,0.00,,,0.01,weatherlink.com 1.10,2013-09-19 10:47:00,
2013-09-19 07:02:00,68.5,68.0,29.98,SSW,204,1.0,2.0,97,0.00,,,0.01,weatherlink.com 1.10,2013-09-19 11:02:00,
2013-09-19 07:17:00,68.6,68.0,29.98,NE,38,1.0,2.0,97,0.00,,,0.01,weatherlink.com 1.10,2013-09-19 11:17:00,
2013-09-19 07:32:00,68.8,68.0,29.99,SW,226,0.0,2.0,97,0.00,,,0.01,weatherlink.com 1.10,2013-09-19 11:32:00,
2013-09-19 07:47:00,68.8,68.0,29.99,NE,56,0.0,0.0,96,0.00,,,0.01,weatherlink.com 1.10,2013-09-19 11:47:00,
2013-09-19 08:02:00,69.0,68.0,30.00,East,89,0.0,0.0,96,0.01,,,0.02,weatherlink.com 1.10,2013-09-19 12:02:00,
2013-09-19 08:17:00,69.0,68.0,30.00,East,86,2.0,2.0,96,0.01,,,0.02,weatherlink.com 1.10,2013-09-19 12:17:00,
2013-09-19 08:32:00,68.8,68.0,30.01,ESE,123,0.0,1.0,96,0.01,,,0.02,weatherlink.com 1.10,2013-09-19 12:32:00,
2013-09-19 08:47:00,68.6,68.0,30.01,SE,139,0.0,1.0,96,0.01,,,0.02,weatherlink.com 1.10,2013-09-19 12:47:00,
2013-09-19 09:02:00,68.5,67.0,30.01,NE,43,0.0,6.0,96,0.01,,,0.03,weatherlink.com 1.10,2013-09-19 13:02:00,
2013-09-19 09:17:00,67.6,67.0,30.01,ESE,117,0.0,7.0,96,0.01,,,0.03,weatherlink.com 1.10,2013-09-19 13:17:00,
2013-09-19 09:32:00,67.1,66.0,30.01,East,89,5.0,6.0,96,0.01,,,0.03,weatherlink.com 1.10,2013-09-19 13:32:00,
2013-09-19 09:47:00,66.9,66.0,30.01,ESE,117,1.0,5.0,96,0.01,,,0.03,weatherlink.com 1.10,2013-09-19 13:47:00,
2013-09-19 10:02:00,66.7,66.0,30.01,SE,125,1.0,4.0,96,0.00,,,0.03,weatherlink.com 1.10,2013-09-19 14:02:00,
2013-09-19 10:17:00,66.5,65.0,30.01,ESE,110,3.0,4.0,96,0.00,,,0.03,weatherlink.com 1.10,2013-09-19 14:17:00,
2013-09-19 10:32:00,66.0,65.0,30.02,ESE,103,0.0,4.0,96,0.01,,,0.04,weatherlink.com 1.10,2013-09-19 14:32:00,
2013-09-19 10:47:00,65.7,65.0,30.03,WNW,294,1.0,4.0,96,0.19,,,0.22,weatherlink.com 1.10,2013-09-19 14:47:00,
2013-09-19 11:02:00,65.6,65.0,30.03,ESE,122,0.0,5.0,96,0.19,,,0.22,weatherlink.com 1.10,2013-09-19 15:02:00,
2013-09-19 11:17:00,65.8,65.0,30.04,ESE,120,0.0,2.0,97,0.19,,,0.22,weatherlink.com 1.10,2013-09-19 15:17:00,
2013-09-19 11:32:00,66.1,65.0,30.02,SE,131,0.0,3.0,97,0.18,,,0.22,weatherlink.com 1.10,2013-09-19 15:32:00,
2013-09-19 11:47:00,66.5,66.0,30.02,South,179,2.0,5.0,97,0.00,,,0.22,weatherlink.com 1.10,2013-09-19 15:47:00,
2013-09-19 12:02:00,67.1,66.0,30.02,SE,135,0.0,2.0,97,0.01,,,0.23,weatherlink.com 1.10,2013-09-19 16:02:00,
2013-09-19 12:17:00,67.8,67.0,30.02,SSW,211,2.0,4.0,97,0.01,,,0.23,weatherlink.com 1.10,2013-09-19 16:17:00,
2013-09-19 12:32:00,68.4,68.0,30.02,SSE,148,2.0,5.0,97,0.01,,,0.23,weatherlink.com 1.10,2013-09-19 16:32:00,
2013-09-19 12:47:00,70.2,69.0,30.02,SE,132,3.0,5.0,97,0.01,,,0.23,weatherlink.com 1.10,2013-09-19 16:47:00,
2013-09-19 13:02:00,71.7,70.0,30.01,South,188,3.0,7.0,93,0.00,,,0.23,weatherlink.com 1.10,2013-09-19 17:02:00,
2013-09-19 13:17:00,73.1,70.0,30.00,SSE,153,1.0,7.0,91,0.00,,,0.23,weatherlink.com 1.10,2013-09-19 17:17:00,
2013-09-19 13:33:00,74.1,70.0,29.99,SE,145,1.0,5.0,88,0.00,,,0.23,weatherlink.com 1.10,2013-09-19 17:33:00,
2013-09-19 13:48:00,75.2,71.0,29.98,ENE,75,4.0,5.0,85,0.00,,,0.23,weatherlink.com 1.10,2013-09-19 17:48:00,
2013-09-19 14:03:00,75.6,71.0,29.98,East,84,2.0,7.0,86,0.00,,,0.23,weatherlink.com 1.10,2013-09-19 18:03:00,
2013-09-19 14:18:00,76.2,71.0,29.97,ESE,117,1.0,8.0,83,0.00,,,0.23,weatherlink.com 1.10,2013-09-19 18:18:00,
2013-09-19 14:33:00,76.8,71.0,29.96,SE,132,3.0,10.0,83,0.00,,,0.23,weatherlink.com 1.10,2013-09-19 18:33:00,
2013-09-19 14:48:00,77.7,71.0,29.96,East,79,2.0,6.0,81,0.00,,,0.23,weatherlink.com 1.10,2013-09-19 18:48:00,
2013-09-19 15:04:00,77.6,71.0,29.96,SSW,200,4.0,9.0,80,0.00,,,0.23,weatherlink.com 1.10,2013-09-19 19:04:00,
2013-09-19 15:18:00,78.3,72.0,29.95,ESE,117,4.0,7.0,80,0.00,,,0.23,weatherlink.com 1.10,2013-09-19 19:18:00,
2013-09-19 15:33:00,78.9,72.0,29.94,ENE,67,2.0,10.0,79,0.00,,,0.23,weatherlink.com 1.10,2013-09-19 19:33:00,
2013-09-19 15:48:00,79.0,72.0,29.93,SW,218,1.0,5.0,80,0.00,,,0.23,weatherlink.com 1.10,2013-09-19 19:48:00,
2013-09-19 16:03:00,79.7,73.0,29.93,SW,231,0.0,5.0,79,0.00,,,0.23,weatherlink.com 1.10,2013-09-19 20:03:00,
2013-09-19 16:18:00,81.1,73.0,29.93,ESE,117,4.0,4.0,76,0.00,,,0.23,weatherlink.com 1.10,2013-09-19 20:18:00,
2013-09-19 16:33:00,81.0,73.0,29.92,ESE,105,6.0,7.0,76,0.00,,,0.23,weatherlink.com 1.10,2013-09-19 20:33:00,
2013-09-19 16:48:00,81.2,73.0,29.92,East,86,2.0,5.0,76,0.00,,,0.23,weatherlink.com 1.10,2013-09-19 20:48:00,
2013-09-19 17:03:00,81.4,74.0,29.92,ESE,103,2.0,3.0,78,0.00,,,0.23,weatherlink.com 1.10,2013-09-19 21:03:00,
2013-09-19 17:33:00,80.5,73.0,29.91,WSW,243,0.0,7.0,77,0.00,,,0.23,weatherlink.com 1.10,2013-09-19 21:33:00,
2013-09-19 17:48:00,80.0,73.0,29.91,SE,134,2.0,6.0,78,0.00,,,0.23,weatherlink.com 1.10,2013-09-19 21:48:00,
2013-09-19 18:03:00,79.3,73.0,29.90,SE,130,2.0,4.0,80,0.00,,,0.23,weatherlink.com 1.10,2013-09-19 22:03:00,
2013-09-19 18:18:00,78.8,73.0,29.89,SE,125,0.0,5.0,81,0.00,,,0.23,weatherlink.com 1.10,2013-09-19 22:18:00,
2013-09-19 18:33:00,78.1,73.0,29.89,East,84,0.0,5.0,83,0.00,,,0.23,weatherlink.com 1.10,2013-09-19 22:33:00,
2013-09-19 18:48:00,77.7,73.0,29.89,SE,134,0.0,2.0,84,0.00,,,0.23,weatherlink.com 1.10,2013-09-19 22:48:00,
2013-09-19 19:03:00,77.1,72.0,29.89,SSE,158,0.0,2.0,85,0.00,,,0.23,weatherlink.com 1.10,2013-09-19 23:03:00,
2013-09-19 19:18:00,76.2,72.0,29.88,ESE,108,0.0,0.0,87,0.00,,,0.23,weatherlink.com 1.10,2013-09-19 23:18:00,
2013-09-19 19:33:00,75.3,72.0,29.88,ESE,117,0.0,0.0,89,0.00,,,0.23,weatherlink.com 1.10,2013-09-19 23:33:00,
2013-09-19 19:48:00,74.9,72.0,29.88,SE,131,0.0,5.0,89,0.00,,,0.23,weatherlink.com 1.10,2013-09-19 23:48:00,
2013-09-19 20:03:00,74.1,71.0,29.87,SSE,166,0.0,1.0,90,0.00,,,0.23,weatherlink.com 1.10,2013-09-20 00:03:00,
2013-09-19 20:19:00,74.1,71.0,29.87,ESE,114,2.0,4.0,90,0.00,,,0.23,weatherlink.com 1.10,2013-09-20 00:19:00,
2013-09-19 20:33:00,74.1,71.0,29.88,ESE,120,2.0,4.0,90,0.00,,,0.23,weatherlink.com 1.10,2013-09-20 00:33:00,
2013-09-19 20:49:00,73.7,71.0,29.88,ESE,120,0.0,2.0,91,0.00,,,0.23,weatherlink.com 1.10,2013-09-20 00:49:00,
2013-09-19 21:04:00,73.5,71.0,29.89,ESE,105,0.0,3.0,91,0.00,,,0.23,weatherlink.com 1.10,2013-09-20 01:04:00,
2013-09-19 21:19:00,73.3,71.0,29.89,SE,126,1.0,3.0,91,0.00,,,0.23,weatherlink.com 1.10,2013-09-20 01:19:00,
2013-09-19 21:34:00,73.2,71.0,29.89,SE,139,1.0,3.0,92,0.00,,,0.23,weatherlink.com 1.10,2013-09-20 01:34:00,
2013-09-19 21:49:00,73.2,71.0,29.89,SSE,148,2.0,4.0,92,0.00,,,0.23,weatherlink.com 1.10,2013-09-20 01:49:00,
2013-09-19 22:04:00,73.1,71.0,29.89,SE,143,0.0,3.0,92,0.00,,,0.23,weatherlink.com 1.10,2013-09-20 02:04:00,
2013-09-19 22:19:00,73.0,70.0,29.89,ESE,123,3.0,4.0,91,0.00,,,0.23,weatherlink.com 1.10,2013-09-20 02:19:00,
2013-09-19 22:34:00,73.0,71.0,29.89,ENE,74,0.0,4.0,92,0.00,,,0.23,weatherlink.com 1.10,2013-09-20 02:34:00,
2013-09-19 22:49:00,73.1,70.0,29.89,SE,138,0.0,2.0,91,0.00,,,0.23,weatherlink.com 1.10,2013-09-20 02:49:00,
2013-09-19 23:04:00,73.0,70.0,29.90,East,98,1.0,3.0,91,0.00,,,0.23,weatherlink.com 1.10,2013-09-20 03:04:00,
2013-09-19 23:19:00,72.8,70.0,29.90,SE,139,2.0,3.0,91,0.00,,,0.23,weatherlink.com 1.10,2013-09-20 03:19:00,
2013-09-19 23:34:00,72.7,70.0,29.90,East,90,2.0,5.0,91,0.00,,,0.23,weatherlink.com 1.10,2013-09-20 03:34:00,
2013-09-19 23:49:00,72.3,70.0,29.89,ESE,108,0.0,3.0,91,0.00,,,0.23,weatherlink.com 1.10,2013-09-20 03:49:00,